sensor_id;sensor_type;location;lat;lon;timestamp;temperature;humidity
20590;DHT22;10453;50.810;12.540;2023-04-28T00:02:25;4.60;99.90
20590;DHT22;10453;50.810;12.540;2023-04-28T00:06:43;4.60;99.90
20590;DHT22;10453;50.810;12.540;2023-04-28T00:11:00;4.50;99.90
20590;DHT22;10453;50.810;12.540;2023-04-28T00:15:17;4.40;99.90
20590;DHT22;10453;50.810;12.540;2023-04-28T00:19:35;4.50;99.90
20590;DHT22;10453;50.810;12.540;2023-04-28T00:23:54;4.50;99.90
20590;DHT22;10453;50.810;12.540;2023-04-28T00:28:12;4.50;99.90
20590;DHT22;10453;50.810;12.540;2023-04-28T00:32:43;4.60;99.90
20590;DHT22;10453;50.810;12.540;2023-04-28T00:37:00;4.70;99.90
20590;DHT22;10453;50.810;12.540;2023-04-28T00:41:17;4.80;99.90
20590;DHT22;10453;50.810;12.540;2023-04-28T00:45:34;4.90;99.90
20590;DHT22;10453;50.810;12.540;2023-04-28T00:49:52;4.90;99.90
20590;DHT22;10453;50.810;12.540;2023-04-28T00:54:12;4.90;99.90
20590;DHT22;10453;50.810;12.540;2023-04-28T00:58:30;4.90;99.90
20590;DHT22;10453;50.810;12.540;2023-04-28T01:02:50;4.90;99.90
20590;DHT22;10453;50.810;12.540;2023-04-28T01:07:08;4.80;99.90
20590;DHT22;10453;50.810;12.540;2023-04-28T01:11:25;4.70;99.90
20590;DHT22;10453;50.810;12.540;2023-04-28T01:15:43;4.80;99.90
20590;DHT22;10453;50.810;12.540;2023-04-28T01:20:00;4.90;99.90
20590;DHT22;10453;50.810;12.540;2023-04-28T01:24:17;5.00;99.90
20590;DHT22;10453;50.810;12.540;2023-04-28T01:28:35;5.00;99.90
20590;DHT22;10453;50.810;12.540;2023-04-28T01:32:52;4.90;99.90
20590;DHT22;10453;50.810;12.540;2023-04-28T01:37:10;4.80;99.90
20590;DHT22;10453;50.810;12.540;2023-04-28T01:41:27;4.80;99.90
20590;DHT22;10453;50.810;12.540;2023-04-28T01:45:44;4.70;99.90
20590;DHT22;10453;50.810;12.540;2023-04-28T01:50:02;4.60;99.90
20590;DHT22;10453;50.810;12.540;2023-04-28T01:54:19;4.60;99.90
20590;DHT22;10453;50.810;12.540;2023-04-28T01:58:37;4.70;99.90
20590;DHT22;10453;50.810;12.540;2023-04-28T02:02:54;4.80;99.90
20590;DHT22;10453;50.810;12.540;2023-04-28T02:07:12;4.80;99.90
20590;DHT22;10453;50.810;12.540;2023-04-28T02:11:29;4.90;99.90
20590;DHT22;10453;50.810;12.540;2023-04-28T02:15:46;4.90;99.90
20590;DHT22;10453;50.810;12.540;2023-04-28T02:20:04;5.10;99.90
20590;DHT22;10453;50.810;12.540;2023-04-28T02:24:22;5.20;99.90
20590;DHT22;10453;50.810;12.540;2023-04-28T02:28:39;5.30;99.90
20590;DHT22;10453;50.810;12.540;2023-04-28T02:32:57;5.40;99.90
20590;DHT22;10453;50.810;12.540;2023-04-28T02:37:14;5.40;99.90
20590;DHT22;10453;50.810;12.540;2023-04-28T02:41:31;5.50;99.90
20590;DHT22;10453;50.810;12.540;2023-04-28T02:45:50;5.60;99.90
20590;DHT22;10453;50.810;12.540;2023-04-28T02:50:08;5.60;99.90
20590;DHT22;10453;50.810;12.540;2023-04-28T02:54:25;5.50;99.90
20590;DHT22;10453;50.810;12.540;2023-04-28T02:58:46;5.60;99.90
20590;DHT22;10453;50.810;12.540;2023-04-28T03:03:03;5.70;99.90
20590;DHT22;10453;50.810;12.540;2023-04-28T03:07:21;5.80;99.90
20590;DHT22;10453;50.810;12.540;2023-04-28T03:11:39;5.50;99.90
20590;DHT22;10453;50.810;12.540;2023-04-28T03:15:57;5.70;99.90
20590;DHT22;10453;50.810;12.540;2023-04-28T03:20:14;5.80;99.90
20590;DHT22;10453;50.810;12.540;2023-04-28T03:24:32;5.80;99.90
20590;DHT22;10453;50.810;12.540;2023-04-28T03:28:49;5.90;99.90
20590;DHT22;10453;50.810;12.540;2023-04-28T03:33:07;5.90;99.90
20590;DHT22;10453;50.810;12.540;2023-04-28T03:37:24;5.90;99.90
20590;DHT22;10453;50.810;12.540;2023-04-28T03:41:42;5.90;99.90
20590;DHT22;10453;50.810;12.540;2023-04-28T03:46:00;6.00;99.90
20590;DHT22;10453;50.810;12.540;2023-04-28T03:50:17;5.80;99.90
20590;DHT22;10453;50.810;12.540;2023-04-28T03:54:35;5.80;99.90
20590;DHT22;10453;50.810;12.540;2023-04-28T03:58:52;5.60;99.90
20590;DHT22;10453;50.810;12.540;2023-04-28T04:03:09;5.70;99.90
20590;DHT22;10453;50.810;12.540;2023-04-28T04:07:28;5.80;99.90
20590;DHT22;10453;50.810;12.540;2023-04-28T04:11:45;5.80;99.90
20590;DHT22;10453;50.810;12.540;2023-04-28T04:16:03;5.80;99.90
20590;DHT22;10453;50.810;12.540;2023-04-28T04:20:20;5.80;99.90
20590;DHT22;10453;50.810;12.540;2023-04-28T04:24:38;5.60;99.90
20590;DHT22;10453;50.810;12.540;2023-04-28T04:28:55;5.60;99.90
20590;DHT22;10453;50.810;12.540;2023-04-28T04:33:12;5.50;99.90
20590;DHT22;10453;50.810;12.540;2023-04-28T04:37:30;5.70;99.90
20590;DHT22;10453;50.810;12.540;2023-04-28T04:41:47;5.80;99.90
20590;DHT22;10453;50.810;12.540;2023-04-28T04:46:05;5.90;99.90
20590;DHT22;10453;50.810;12.540;2023-04-28T04:50:22;6.10;99.90
20590;DHT22;10453;50.810;12.540;2023-04-28T04:54:40;6.20;99.90
20590;DHT22;10453;50.810;12.540;2023-04-28T04:58:58;6.40;99.90
20590;DHT22;10453;50.810;12.540;2023-04-28T05:03:16;6.60;99.90
20590;DHT22;10453;50.810;12.540;2023-04-28T05:07:34;7.00;99.90
20590;DHT22;10453;50.810;12.540;2023-04-28T05:11:51;7.00;99.90
20590;DHT22;10453;50.810;12.540;2023-04-28T05:16:09;7.20;99.90
20590;DHT22;10453;50.810;12.540;2023-04-28T05:20:27;7.20;99.90
20590;DHT22;10453;50.810;12.540;2023-04-28T05:24:45;7.10;99.90
20590;DHT22;10453;50.810;12.540;2023-04-28T05:29:02;7.40;99.90
20590;DHT22;10453;50.810;12.540;2023-04-28T05:33:19;7.80;99.90
20590;DHT22;10453;50.810;12.540;2023-04-28T05:37:37;7.80;99.90
20590;DHT22;10453;50.810;12.540;2023-04-28T05:41:54;7.80;99.90
20590;DHT22;10453;50.810;12.540;2023-04-28T05:46:12;7.70;99.90
20590;DHT22;10453;50.810;12.540;2023-04-28T05:50:46;7.60;99.90
20590;DHT22;10453;50.810;12.540;2023-04-28T05:55:03;8.00;99.90
20590;DHT22;10453;50.810;12.540;2023-04-28T05:59:21;8.40;99.90
20590;DHT22;10453;50.810;12.540;2023-04-28T06:03:38;8.50;99.90
20590;DHT22;10453;50.810;12.540;2023-04-28T06:07:58;8.60;99.90
20590;DHT22;10453;50.810;12.540;2023-04-28T06:12:15;8.80;99.90
20590;DHT22;10453;50.810;12.540;2023-04-28T06:16:33;9.20;99.90
20590;DHT22;10453;50.810;12.540;2023-04-28T06:20:51;9.40;99.90
20590;DHT22;10453;50.810;12.540;2023-04-28T06:25:08;9.60;99.90
20590;DHT22;10453;50.810;12.540;2023-04-28T06:29:25;9.50;99.90
20590;DHT22;10453;50.810;12.540;2023-04-28T06:33:44;9.70;99.90
20590;DHT22;10453;50.810;12.540;2023-04-28T06:38:02;10.20;99.90
20590;DHT22;10453;50.810;12.540;2023-04-28T06:42:21;10.30;99.90
20590;DHT22;10453;50.810;12.540;2023-04-28T06:46:39;10.40;99.90
20590;DHT22;10453;50.810;12.540;2023-04-28T06:50:57;10.60;99.90
20590;DHT22;10453;50.810;12.540;2023-04-28T06:55:15;10.70;99.90
20590;DHT22;10453;50.810;12.540;2023-04-28T06:59:36;10.50;99.90
20590;DHT22;10453;50.810;12.540;2023-04-28T07:03:54;10.70;99.90
20590;DHT22;10453;50.810;12.540;2023-04-28T07:08:13;11.10;99.90
20590;DHT22;10453;50.810;12.540;2023-04-28T07:12:42;10.90;99.90
20590;DHT22;10453;50.810;12.540;2023-04-28T07:16:59;11.00;99.90
20590;DHT22;10453;50.810;12.540;2023-04-28T07:21:17;11.30;99.90
20590;DHT22;10453;50.810;12.540;2023-04-28T07:25:35;11.50;99.90
20590;DHT22;10453;50.810;12.540;2023-04-28T07:29:54;11.80;99.90
20590;DHT22;10453;50.810;12.540;2023-04-28T07:34:13;11.80;99.90
20590;DHT22;10453;50.810;12.540;2023-04-28T07:38:33;12.20;99.90
20590;DHT22;10453;50.810;12.540;2023-04-28T07:42:51;12.80;99.90
20590;DHT22;10453;50.810;12.540;2023-04-28T07:47:08;13.30;99.90
20590;DHT22;10453;50.810;12.540;2023-04-28T07:51:26;13.50;99.90
20590;DHT22;10453;50.810;12.540;2023-04-28T07:55:44;13.30;99.90
20590;DHT22;10453;50.810;12.540;2023-04-28T08:00:03;13.50;99.90
20590;DHT22;10453;50.810;12.540;2023-04-28T08:04:21;13.60;99.90
20590;DHT22;10453;50.810;12.540;2023-04-28T08:08:39;13.70;99.90
20590;DHT22;10453;50.810;12.540;2023-04-28T08:12:57;13.90;99.90
20590;DHT22;10453;50.810;12.540;2023-04-28T08:17:14;14.10;99.90
20590;DHT22;10453;50.810;12.540;2023-04-28T08:21:32;14.10;99.90
20590;DHT22;10453;50.810;12.540;2023-04-28T08:25:50;13.60;99.90
20590;DHT22;10453;50.810;12.540;2023-04-28T08:30:08;13.70;99.90
20590;DHT22;10453;50.810;12.540;2023-04-28T08:34:26;13.80;99.90
20590;DHT22;10453;50.810;12.540;2023-04-28T08:38:44;13.70;99.90
20590;DHT22;10453;50.810;12.540;2023-04-28T08:43:02;13.80;99.90
20590;DHT22;10453;50.810;12.540;2023-04-28T08:47:21;13.80;99.90
20590;DHT22;10453;50.810;12.540;2023-04-28T08:51:45;13.50;99.90
20590;DHT22;10453;50.810;12.540;2023-04-28T08:56:05;13.50;99.90
20590;DHT22;10453;50.810;12.540;2023-04-28T09:00:23;13.40;99.90
20590;DHT22;10453;50.810;12.540;2023-04-28T09:04:41;13.40;99.90
20590;DHT22;10453;50.810;12.540;2023-04-28T09:09:26;13.40;99.90
20590;DHT22;10453;50.810;12.540;2023-04-28T09:13:50;13.40;99.90
20590;DHT22;10453;50.810;12.540;2023-04-28T09:18:13;13.50;99.90
20590;DHT22;10453;50.810;12.540;2023-04-28T09:22:31;13.60;99.90
20590;DHT22;10453;50.810;12.540;2023-04-28T09:26:49;13.40;99.90
20590;DHT22;10453;50.810;12.540;2023-04-28T09:31:21;13.30;99.90
20590;DHT22;10453;50.810;12.540;2023-04-28T09:35:42;13.40;99.90
20590;DHT22;10453;50.810;12.540;2023-04-28T09:40:08;13.00;99.90
20590;DHT22;10453;50.810;12.540;2023-04-28T09:44:26;12.80;99.90
20590;DHT22;10453;50.810;12.540;2023-04-28T09:48:44;12.80;99.90
20590;DHT22;10453;50.810;12.540;2023-04-28T09:53:02;12.70;99.90
20590;DHT22;10453;50.810;12.540;2023-04-28T09:57:20;12.50;99.90
20590;DHT22;10453;50.810;12.540;2023-04-28T10:01:39;12.30;99.90
20590;DHT22;10453;50.810;12.540;2023-04-28T10:05:58;12.30;99.90
20590;DHT22;10453;50.810;12.540;2023-04-28T10:10:15;12.20;99.90
20590;DHT22;10453;50.810;12.540;2023-04-28T10:14:33;12.30;99.90
20590;DHT22;10453;50.810;12.540;2023-04-28T10:18:53;12.40;99.90
20590;DHT22;10453;50.810;12.540;2023-04-28T10:27:57;12.70;99.90
20590;DHT22;10453;50.810;12.540;2023-04-28T10:32:17;12.60;99.90
20590;DHT22;10453;50.810;12.540;2023-04-28T10:36:49;12.60;99.90
20590;DHT22;10453;50.810;12.540;2023-04-28T10:41:30;12.60;99.90
20590;DHT22;10453;50.810;12.540;2023-04-28T10:50:09;12.50;99.90
20590;DHT22;10453;50.810;12.540;2023-04-28T10:54:27;12.20;99.90
20590;DHT22;10453;50.810;12.540;2023-04-28T10:58:47;12.40;99.90
20590;DHT22;10453;50.810;12.540;2023-04-28T11:03:07;12.30;99.90
20590;DHT22;10453;50.810;12.540;2023-04-28T11:07:24;12.20;99.90
20590;DHT22;10453;50.810;12.540;2023-04-28T11:16:23;11.90;99.90
20590;DHT22;10453;50.810;12.540;2023-04-28T11:20:44;11.70;99.90
20590;DHT22;10453;50.810;12.540;2023-04-28T11:25:07;11.80;99.90
20590;DHT22;10453;50.810;12.540;2023-04-28T11:29:33;12.00;99.90
20590;DHT22;10453;50.810;12.540;2023-04-28T11:34:06;12.20;99.90
20590;DHT22;10453;50.810;12.540;2023-04-28T11:38:28;12.30;99.90
20590;DHT22;10453;50.810;12.540;2023-04-28T11:42:48;12.50;99.90
20590;DHT22;10453;50.810;12.540;2023-04-28T11:47:06;12.70;99.90
20590;DHT22;10453;50.810;12.540;2023-04-28T11:51:32;12.90;99.90
20590;DHT22;10453;50.810;12.540;2023-04-28T11:56:04;12.70;99.90
20590;DHT22;10453;50.810;12.540;2023-04-28T12:00:24;12.50;99.90
20590;DHT22;10453;50.810;12.540;2023-04-28T12:04:43;12.90;99.90
20590;DHT22;10453;50.810;12.540;2023-04-28T12:09:14;13.50;99.90
20590;DHT22;10453;50.810;12.540;2023-04-28T12:13:31;14.80;99.90
20590;DHT22;10453;50.810;12.540;2023-04-28T12:17:49;15.50;99.90
20590;DHT22;10453;50.810;12.540;2023-04-28T12:22:08;14.90;99.90
20590;DHT22;10453;50.810;12.540;2023-04-28T12:26:28;14.60;99.90
20590;DHT22;10453;50.810;12.540;2023-04-28T12:30:49;14.10;99.90
20590;DHT22;10453;50.810;12.540;2023-04-28T12:35:06;14.40;99.90
20590;DHT22;10453;50.810;12.540;2023-04-28T12:39:24;14.50;99.90
20590;DHT22;10453;50.810;12.540;2023-04-28T12:43:43;14.50;99.90
20590;DHT22;10453;50.810;12.540;2023-04-28T12:48:00;14.20;99.90
20590;DHT22;10453;50.810;12.540;2023-04-28T12:52:21;13.70;99.90
20590;DHT22;10453;50.810;12.540;2023-04-28T12:56:39;13.70;99.90
20590;DHT22;10453;50.810;12.540;2023-04-28T13:00:56;13.50;99.90
20590;DHT22;10453;50.810;12.540;2023-04-28T13:05:13;13.30;99.90
20590;DHT22;10453;50.810;12.540;2023-04-28T13:09:31;13.30;99.90
20590;DHT22;10453;50.810;12.540;2023-04-28T13:13:48;13.20;99.90
20590;DHT22;10453;50.810;12.540;2023-04-28T13:18:05;13.20;99.90
20590;DHT22;10453;50.810;12.540;2023-04-28T13:22:23;13.10;99.90
20590;DHT22;10453;50.810;12.540;2023-04-28T13:26:41;13.20;99.90
20590;DHT22;10453;50.810;12.540;2023-04-28T13:31:00;13.40;99.90
20590;DHT22;10453;50.810;12.540;2023-04-28T13:35:17;13.30;99.90
20590;DHT22;10453;50.810;12.540;2023-04-28T13:39:35;13.50;99.90
20590;DHT22;10453;50.810;12.540;2023-04-28T13:43:54;13.60;99.90
20590;DHT22;10453;50.810;12.540;2023-04-28T13:48:12;13.70;99.90
20590;DHT22;10453;50.810;12.540;2023-04-28T13:52:30;13.50;99.90
20590;DHT22;10453;50.810;12.540;2023-04-28T13:56:48;13.50;99.90
20590;DHT22;10453;50.810;12.540;2023-04-28T14:01:05;13.70;99.90
20590;DHT22;10453;50.810;12.540;2023-04-28T14:05:24;13.80;99.90
20590;DHT22;10453;50.810;12.540;2023-04-28T14:09:42;13.70;99.90
20590;DHT22;10453;50.810;12.540;2023-04-28T14:14:00;13.90;99.90
20590;DHT22;10453;50.810;12.540;2023-04-28T14:18:18;14.10;99.90
20590;DHT22;10453;50.810;12.540;2023-04-28T14:22:37;14.10;99.90
20590;DHT22;10453;50.810;12.540;2023-04-28T14:26:55;14.00;99.90
20590;DHT22;10453;50.810;12.540;2023-04-28T14:31:13;13.80;99.90
20590;DHT22;10453;50.810;12.540;2023-04-28T14:35:33;14.00;99.90
20590;DHT22;10453;50.810;12.540;2023-04-28T14:39:51;13.90;99.90
20590;DHT22;10453;50.810;12.540;2023-04-28T14:44:08;13.70;99.90
20590;DHT22;10453;50.810;12.540;2023-04-28T14:48:28;13.70;99.90
20590;DHT22;10453;50.810;12.540;2023-04-28T14:52:45;13.80;99.90
20590;DHT22;10453;50.810;12.540;2023-04-28T14:57:04;13.70;99.90
20590;DHT22;10453;50.810;12.540;2023-04-28T15:01:24;13.60;99.90
20590;DHT22;10453;50.810;12.540;2023-04-28T15:05:42;13.60;99.90
20590;DHT22;10453;50.810;12.540;2023-04-28T15:10:00;13.60;99.90
20590;DHT22;10453;50.810;12.540;2023-04-28T15:14:18;13.70;99.90
20590;DHT22;10453;50.810;12.540;2023-04-28T15:18:35;13.50;99.90
20590;DHT22;10453;50.810;12.540;2023-04-28T15:22:53;13.40;99.90
20590;DHT22;10453;50.810;12.540;2023-04-28T15:27:10;13.40;99.90
20590;DHT22;10453;50.810;12.540;2023-04-28T15:31:27;13.40;99.90
20590;DHT22;10453;50.810;12.540;2023-04-28T15:35:48;13.60;99.90
20590;DHT22;10453;50.810;12.540;2023-04-28T15:40:07;13.70;99.90
20590;DHT22;10453;50.810;12.540;2023-04-28T15:44:25;13.60;99.90
20590;DHT22;10453;50.810;12.540;2023-04-28T15:48:45;13.60;99.90
20590;DHT22;10453;50.810;12.540;2023-04-28T15:53:02;13.70;99.90
20590;DHT22;10453;50.810;12.540;2023-04-28T15:57:19;13.50;99.90
20590;DHT22;10453;50.810;12.540;2023-04-28T16:01:37;13.30;99.90
20590;DHT22;10453;50.810;12.540;2023-04-28T16:05:55;13.30;99.90
20590;DHT22;10453;50.810;12.540;2023-04-28T16:10:14;13.10;99.90
20590;DHT22;10453;50.810;12.540;2023-04-28T16:14:32;13.10;99.90
20590;DHT22;10453;50.810;12.540;2023-04-28T16:18:50;13.00;99.90
20590;DHT22;10453;50.810;12.540;2023-04-28T16:23:08;12.90;99.90
20590;DHT22;10453;50.810;12.540;2023-04-28T16:27:30;12.90;99.90
20590;DHT22;10453;50.810;12.540;2023-04-28T16:31:48;12.90;99.90
20590;DHT22;10453;50.810;12.540;2023-04-28T16:36:05;12.90;99.90
20590;DHT22;10453;50.810;12.540;2023-04-28T16:40:23;12.90;99.90
20590;DHT22;10453;50.810;12.540;2023-04-28T16:44:41;12.90;99.90
20590;DHT22;10453;50.810;12.540;2023-04-28T16:48:58;12.90;99.90
20590;DHT22;10453;50.810;12.540;2023-04-28T16:53:17;12.90;99.90
20590;DHT22;10453;50.810;12.540;2023-04-28T16:57:35;12.80;99.90
20590;DHT22;10453;50.810;12.540;2023-04-28T17:01:53;12.80;99.90
20590;DHT22;10453;50.810;12.540;2023-04-28T17:06:10;12.90;99.90
20590;DHT22;10453;50.810;12.540;2023-04-28T17:10:29;13.00;99.90
20590;DHT22;10453;50.810;12.540;2023-04-28T17:14:47;13.00;99.90
20590;DHT22;10453;50.810;12.540;2023-04-28T17:19:07;12.90;99.90
20590;DHT22;10453;50.810;12.540;2023-04-28T17:23:27;12.80;99.90
20590;DHT22;10453;50.810;12.540;2023-04-28T17:27:44;12.90;99.90
20590;DHT22;10453;50.810;12.540;2023-04-28T17:32:02;13.00;99.90
20590;DHT22;10453;50.810;12.540;2023-04-28T17:36:21;12.80;99.90
20590;DHT22;10453;50.810;12.540;2023-04-28T17:40:45;12.80;99.90
20590;DHT22;10453;50.810;12.540;2023-04-28T17:45:05;12.70;99.90
20590;DHT22;10453;50.810;12.540;2023-04-28T17:49:23;12.60;99.90
20590;DHT22;10453;50.810;12.540;2023-04-28T17:53:41;12.60;99.90
20590;DHT22;10453;50.810;12.540;2023-04-28T17:58:01;12.50;99.90
20590;DHT22;10453;50.810;12.540;2023-04-28T18:02:20;12.40;99.90
20590;DHT22;10453;50.810;12.540;2023-04-28T18:06:38;12.50;99.90
20590;DHT22;10453;50.810;12.540;2023-04-28T18:10:56;12.40;99.90
20590;DHT22;10453;50.810;12.540;2023-04-28T18:15:14;12.40;99.90
20590;DHT22;10453;50.810;12.540;2023-04-28T18:19:32;12.30;99.90
20590;DHT22;10453;50.810;12.540;2023-04-28T18:23:49;12.30;99.90
20590;DHT22;10453;50.810;12.540;2023-04-28T18:28:07;12.20;99.90
20590;DHT22;10453;50.810;12.540;2023-04-28T18:32:27;12.20;99.90
20590;DHT22;10453;50.810;12.540;2023-04-28T18:36:46;12.10;99.90
20590;DHT22;10453;50.810;12.540;2023-04-28T18:41:14;12.00;99.90
20590;DHT22;10453;50.810;12.540;2023-04-28T18:45:36;12.00;99.90
20590;DHT22;10453;50.810;12.540;2023-04-28T18:49:58;12.00;99.90
20590;DHT22;10453;50.810;12.540;2023-04-28T18:54:16;12.00;99.90
20590;DHT22;10453;50.810;12.540;2023-04-28T18:58:33;12.10;99.90
20590;DHT22;10453;50.810;12.540;2023-04-28T19:02:53;12.00;99.90
20590;DHT22;10453;50.810;12.540;2023-04-28T19:07:11;11.90;99.90
20590;DHT22;10453;50.810;12.540;2023-04-28T19:11:29;12.00;99.90
20590;DHT22;10453;50.810;12.540;2023-04-28T19:15:47;11.80;99.90
20590;DHT22;10453;50.810;12.540;2023-04-28T19:20:07;11.80;99.90
20590;DHT22;10453;50.810;12.540;2023-04-28T19:24:26;11.90;99.90
20590;DHT22;10453;50.810;12.540;2023-04-28T19:28:45;11.90;99.90
20590;DHT22;10453;50.810;12.540;2023-04-28T19:33:02;11.90;99.90
20590;DHT22;10453;50.810;12.540;2023-04-28T19:37:21;11.90;99.90
20590;DHT22;10453;50.810;12.540;2023-04-28T19:41:38;12.00;99.90
20590;DHT22;10453;50.810;12.540;2023-04-28T19:45:56;11.90;99.90
20590;DHT22;10453;50.810;12.540;2023-04-28T19:50:14;11.80;99.90
20590;DHT22;10453;50.810;12.540;2023-04-28T19:54:32;11.80;99.90
20590;DHT22;10453;50.810;12.540;2023-04-28T19:58:49;11.80;99.90
20590;DHT22;10453;50.810;12.540;2023-04-28T20:03:07;11.80;99.90
20590;DHT22;10453;50.810;12.540;2023-04-28T20:07:25;11.80;99.90
20590;DHT22;10453;50.810;12.540;2023-04-28T20:11:42;11.80;99.90
20590;DHT22;10453;50.810;12.540;2023-04-28T20:15:59;11.80;99.90
20590;DHT22;10453;50.810;12.540;2023-04-28T20:20:17;11.80;99.90
20590;DHT22;10453;50.810;12.540;2023-04-28T20:24:35;11.70;99.90
20590;DHT22;10453;50.810;12.540;2023-04-28T20:28:53;11.70;99.90
20590;DHT22;10453;50.810;12.540;2023-04-28T20:33:11;11.70;99.90
20590;DHT22;10453;50.810;12.540;2023-04-28T20:37:29;11.60;99.90
20590;DHT22;10453;50.810;12.540;2023-04-28T20:41:46;11.60;99.90
20590;DHT22;10453;50.810;12.540;2023-04-28T20:46:08;11.50;99.90
20590;DHT22;10453;50.810;12.540;2023-04-28T20:50:26;11.50;99.90
20590;DHT22;10453;50.810;12.540;2023-04-28T20:54:45;11.40;99.90
20590;DHT22;10453;50.810;12.540;2023-04-28T20:59:03;11.20;99.90
20590;DHT22;10453;50.810;12.540;2023-04-28T21:03:20;11.00;99.90
20590;DHT22;10453;50.810;12.540;2023-04-28T21:07:39;10.90;99.90
20590;DHT22;10453;50.810;12.540;2023-04-28T21:11:57;10.70;99.90
20590;DHT22;10453;50.810;12.540;2023-04-28T21:16:15;10.60;99.90
20590;DHT22;10453;50.810;12.540;2023-04-28T21:20:37;10.50;99.90
20590;DHT22;10453;50.810;12.540;2023-04-28T21:24:54;10.40;99.90
20590;DHT22;10453;50.810;12.540;2023-04-28T21:29:12;10.30;99.90
20590;DHT22;10453;50.810;12.540;2023-04-28T21:33:30;10.30;99.90
20590;DHT22;10453;50.810;12.540;2023-04-28T21:37:47;10.30;99.90
20590;DHT22;10453;50.810;12.540;2023-04-28T21:42:04;10.50;99.90
20590;DHT22;10453;50.810;12.540;2023-04-28T21:46:24;10.70;99.90
20590;DHT22;10453;50.810;12.540;2023-04-28T21:50:42;10.90;99.90
20590;DHT22;10453;50.810;12.540;2023-04-28T21:54:59;10.90;99.90
20590;DHT22;10453;50.810;12.540;2023-04-28T21:59:16;11.00;99.90
20590;DHT22;10453;50.810;12.540;2023-04-28T22:03:34;11.10;99.90
20590;DHT22;10453;50.810;12.540;2023-04-28T22:07:52;11.10;99.90
20590;DHT22;10453;50.810;12.540;2023-04-28T22:12:10;11.00;99.90
20590;DHT22;10453;50.810;12.540;2023-04-28T22:16:27;10.90;99.90
20590;DHT22;10453;50.810;12.540;2023-04-28T22:20:44;10.90;99.90
20590;DHT22;10453;50.810;12.540;2023-04-28T22:25:02;10.90;99.90
20590;DHT22;10453;50.810;12.540;2023-04-28T22:29:19;11.00;99.90
20590;DHT22;10453;50.810;12.540;2023-04-28T22:33:36;11.00;99.90
20590;DHT22;10453;50.810;12.540;2023-04-28T22:37:55;11.10;99.90
20590;DHT22;10453;50.810;12.540;2023-04-28T22:42:12;11.20;99.90
20590;DHT22;10453;50.810;12.540;2023-04-28T22:46:30;11.30;99.90
20590;DHT22;10453;50.810;12.540;2023-04-28T22:50:47;11.30;99.90
20590;DHT22;10453;50.810;12.540;2023-04-28T22:55:05;11.30;99.90
20590;DHT22;10453;50.810;12.540;2023-04-28T22:59:23;11.30;99.90
20590;DHT22;10453;50.810;12.540;2023-04-28T23:03:40;11.30;99.90
20590;DHT22;10453;50.810;12.540;2023-04-28T23:07:58;11.40;99.90
20590;DHT22;10453;50.810;12.540;2023-04-28T23:12:15;11.60;99.90
20590;DHT22;10453;50.810;12.540;2023-04-28T23:16:33;11.50;99.90
20590;DHT22;10453;50.810;12.540;2023-04-28T23:20:50;11.50;99.90
20590;DHT22;10453;50.810;12.540;2023-04-28T23:25:08;11.60;99.90
20590;DHT22;10453;50.810;12.540;2023-04-28T23:29:25;11.70;99.90
20590;DHT22;10453;50.810;12.540;2023-04-28T23:33:42;11.80;99.90
20590;DHT22;10453;50.810;12.540;2023-04-28T23:38:00;11.90;99.90
20590;DHT22;10453;50.810;12.540;2023-04-28T23:42:18;11.90;99.90
20590;DHT22;10453;50.810;12.540;2023-04-28T23:46:35;11.80;99.90
20590;DHT22;10453;50.810;12.540;2023-04-28T23:50:53;11.80;99.90
20590;DHT22;10453;50.810;12.540;2023-04-28T23:55:10;11.70;99.90
20590;DHT22;10453;50.810;12.540;2023-04-28T23:59:29;11.90;99.90
